Metar z połowy godziny Komunikat METAR ze strony awiacja.imgw.pl Metar Mil EPIR METAR EPIR 271430Z AUTO 16002KT VV015 02/01 Q0995 RMK 019 091 ///=